createdAt,value
2019-06-08T00:00:16.674Z,100386.86
2019-06-08T00:04:40.702Z,100383.97
2019-06-08T00:09:06.345Z,100384.16
2019-06-08T00:13:30.188Z,100400.79
2019-06-08T00:17:55.427Z,100396.00
2019-06-08T00:22:19.788Z,100396.50
2019-06-08T00:26:43.535Z,100394.69
2019-06-08T00:31:07.202Z,100405.64
2019-06-08T00:35:30.889Z,100406.66
2019-06-08T00:39:55.015Z,100412.98
2019-06-08T00:44:19.249Z,100409.84
2019-06-08T00:48:44.256Z,100413.45
2019-06-08T00:53:08.033Z,100423.02
2019-06-08T00:57:31.811Z,100430.30
2019-06-08T01:01:55.574Z,100425.58
2019-06-08T01:06:19.253Z,100424.33
2019-06-08T01:10:43.071Z,100418.90
2019-06-08T01:15:07.839Z,100422.02
2019-06-08T01:19:32.898Z,100411.61
2019-06-08T01:23:58.866Z,100428.87
2019-06-08T01:28:23.971Z,100427.70
2019-06-08T01:32:48.328Z,100433.80
2019-06-08T01:37:12.045Z,100442.73
2019-06-08T01:41:35.878Z,100428.23
2019-06-08T01:45:59.566Z,100428.66
2019-06-08T01:50:24.358Z,100426.09
2019-06-08T01:54:48.571Z,100429.64
2019-06-08T01:59:12.325Z,100424.14
2019-06-08T02:03:36.352Z,100426.92
2019-06-08T02:08:01.203Z,100428.09
2019-06-08T02:12:24.901Z,100426.38
2019-06-08T02:16:48.586Z,100429.41
2019-06-08T02:21:12.437Z,100431.09
2019-06-08T02:25:36.234Z,100426.23
2019-06-08T02:29:59.924Z,100425.00
2019-06-08T02:34:23.611Z,100421.05
2019-06-08T02:38:47.353Z,100425.22
2019-06-08T02:43:11.280Z,100425.00
2019-06-08T02:47:36.720Z,100428.11
2019-06-08T02:52:01.883Z,100434.77
2019-06-08T02:56:27.734Z,100444.69
2019-06-08T03:00:54.482Z,100431.78
2019-06-08T03:05:19.788Z,100451.61
2019-06-08T03:09:46.020Z,100446.56
2019-06-08T03:14:09.702Z,100457.86
2019-06-08T03:18:35.696Z,100465.94
2019-06-08T03:22:59.562Z,100461.99
2019-06-08T03:27:23.239Z,100466.09
2019-06-08T03:31:54.983Z,100467.95
2019-06-08T03:36:12.797Z,100467.95
2019-06-08T03:40:38.264Z,100461.92
2019-06-08T03:45:01.934Z,100471.50
2019-06-08T03:49:41.450Z,100485.20
2019-06-08T03:53:54.645Z,100483.81
2019-06-08T03:58:18.358Z,100497.55
2019-06-08T04:02:42.696Z,100507.63
2019-06-08T04:07:07.486Z,100507.63
2019-06-08T04:11:31.598Z,100521.48
2019-06-08T04:15:55.541Z,100503.06
2019-06-08T04:20:19.379Z,100514.13
2019-06-08T04:24:46.628Z,100515.84
2019-06-08T04:29:10.419Z,100528.82
2019-06-08T04:33:34.094Z,100523.31
2019-06-08T04:37:57.848Z,100524.86
2019-06-08T04:42:22.150Z,100527.56
2019-06-08T04:46:47.712Z,100536.77
2019-06-08T04:51:11.572Z,100551.86
2019-06-08T04:55:35.981Z,100552.19
2019-06-08T04:59:59.699Z,100556.05
2019-06-08T05:04:23.367Z,100562.23
2019-06-08T05:08:47.479Z,100582.11
2019-06-08T05:13:11.405Z,100575.64
2019-06-08T05:17:35.074Z,100602.84
2019-06-08T05:21:58.752Z,100588.28
2019-06-08T05:26:22.442Z,100590.97
2019-06-08T05:30:47.404Z,100596.66
2019-06-08T05:35:11.427Z,100609.89
2019-06-08T05:39:35.112Z,100611.82
2019-06-08T05:43:58.797Z,100617.60
2019-06-08T05:48:22.738Z,100626.89
2019-06-08T05:52:46.434Z,100625.48
2019-06-08T05:57:10.100Z,100624.33
2019-06-08T06:01:33.931Z,100624.37
2019-06-08T06:05:57.676Z,100640.00
2019-06-08T06:10:21.501Z,100638.31
2019-06-08T06:14:45.160Z,100654.88
2019-06-08T06:19:09.070Z,100659.58
2019-06-08T06:23:33.716Z,100656.14
2019-06-08T06:27:57.424Z,100681.73
2019-06-08T06:32:21.198Z,100667.70
2019-06-08T06:36:45.858Z,100684.31
2019-06-08T06:41:10.485Z,100684.08
2019-06-08T06:45:34.172Z,100692.23
2019-06-08T06:49:57.868Z,100700.83
2019-06-08T06:54:21.803Z,100717.92
2019-06-08T06:58:45.482Z,100726.31
2019-06-08T07:03:09.171Z,100721.66
2019-06-08T07:07:33.219Z,100734.94
2019-06-08T07:11:56.941Z,100745.72
2019-06-08T07:16:20.803Z,100764.61
2019-06-08T07:20:44.474Z,100783.16
2019-06-08T07:25:08.336Z,100782.92
2019-06-08T07:29:31.992Z,100795.11
2019-06-08T07:33:55.775Z,100790.45
2019-06-08T07:38:19.425Z,100795.08
2019-06-08T07:42:43.263Z,100800.11
2019-06-08T07:47:06.972Z,100803.08
2019-06-08T07:51:30.649Z,100809.41
2019-06-08T07:55:56.099Z,100818.81
2019-06-08T08:00:20.040Z,100819.06
2019-06-08T08:04:43.772Z,100823.13
2019-06-08T08:09:08.171Z,100836.97
2019-06-08T08:13:31.925Z,100845.56
2019-06-08T08:17:55.855Z,100846.87
2019-06-08T08:22:26.026Z,100839.34
2019-06-08T08:26:45.066Z,100850.69
2019-06-08T08:31:11.420Z,100860.71
2019-06-08T08:35:34.638Z,100865.11
2019-06-08T08:40:00.282Z,100868.33
2019-06-08T08:44:23.758Z,100871.55
2019-06-08T08:48:50.903Z,100875.83
2019-06-08T08:53:14.174Z,100869.64
2019-06-08T08:57:41.447Z,100881.96
2019-06-08T09:02:03.820Z,100881.83
2019-06-08T09:06:28.092Z,100898.43
2019-06-08T09:10:53.088Z,100890.44
2019-06-08T09:15:19.229Z,100882.81
2019-06-08T09:19:43.022Z,100892.72
2019-06-08T09:24:07.670Z,100900.38
2019-06-08T09:28:31.458Z,100909.71
2019-06-08T09:32:57.144Z,100911.05
2019-06-08T09:37:20.820Z,100928.11
2019-06-08T09:41:44.643Z,100930.40
2019-06-08T09:46:09.277Z,100931.59
2019-06-08T09:50:33.265Z,100937.78
2019-06-08T09:55:01.992Z,100943.17
2019-06-08T09:59:22.668Z,100933.48
2019-06-08T10:03:48.243Z,100934.42
2019-06-08T10:08:11.741Z,100933.55
2019-06-08T10:12:37.786Z,100934.55
2019-06-08T10:17:03.868Z,100940.23
2019-06-08T10:21:28.515Z,100925.54
2019-06-08T10:25:52.449Z,100930.47
2019-06-08T10:30:16.257Z,100920.39
2019-06-08T10:34:39.968Z,100931.36
2019-06-08T10:39:07.271Z,100949.63
2019-06-08T10:43:30.758Z,100940.83
2019-06-08T10:47:54.529Z,100958.63
2019-06-08T10:52:20.280Z,100946.03
2019-06-08T10:56:43.606Z,100949.33
2019-06-08T11:01:12.129Z,100961.95
2019-06-08T11:05:32.937Z,100970.38
2019-06-08T11:09:58.648Z,100988.24
2019-06-08T11:14:22.871Z,100977.53
2019-06-08T11:18:50.556Z,100999.95
2019-06-08T11:23:12.667Z,100979.73
2019-06-08T11:27:38.627Z,100994.08
2019-06-08T11:32:02.167Z,101005.73
2019-06-08T11:36:28.186Z,101049.83
2019-06-08T11:40:51.540Z,101051.39
2019-06-08T11:45:17.779Z,101071.41
2019-06-08T11:49:41.156Z,101073.06
2019-06-08T11:54:19.240Z,101082.80
2019-06-08T11:58:31.820Z,101087.86
2019-06-08T12:02:57.977Z,101096.05
2019-06-08T12:07:21.019Z,101105.06
2019-06-08T12:11:44.681Z,101101.92
2019-06-08T12:16:14.864Z,101125.25
2019-06-08T12:20:33.870Z,101135.52
2019-06-08T12:24:57.557Z,101121.61
2019-06-08T12:29:21.305Z,101126.70
2019-06-08T12:33:44.988Z,101116.37
2019-06-08T12:38:09.987Z,101116.95
2019-06-08T12:42:34.056Z,101113.71
2019-06-08T12:46:58.545Z,101118.55
2019-06-08T12:51:22.425Z,101116.31
2019-06-08T12:55:47.607Z,101125.25
2019-06-08T13:00:13.149Z,101131.87
2019-06-08T13:04:38.427Z,101129.79
2019-06-08T13:09:02.169Z,101128.05
2019-06-08T13:13:28.251Z,101139.61
2019-06-08T13:17:52.025Z,101170.73
2019-06-08T13:22:16.918Z,101191.51
2019-06-08T13:26:41.108Z,101197.43
2019-06-08T13:31:07.804Z,101209.93
2019-06-08T13:35:30.903Z,101196.37
2019-06-08T13:39:54.597Z,101183.33
2019-06-08T13:44:18.264Z,101170.09
2019-06-08T13:48:41.950Z,101176.71
2019-06-08T13:53:05.961Z,101166.78
2019-06-08T13:57:29.633Z,101151.11
2019-06-08T14:01:53.397Z,101147.00
2019-06-08T14:06:18.997Z,101161.39
2019-06-08T14:10:43.170Z,101159.37
2019-06-08T14:15:08.643Z,101168.80
2019-06-08T14:19:33.951Z,101191.78
2019-06-08T14:23:58.758Z,101185.01
2019-06-08T14:28:23.306Z,101191.00
2019-06-08T14:32:48.131Z,101178.94
2019-06-08T14:37:11.869Z,101171.52
2019-06-08T14:41:35.872Z,101163.88
2019-06-08T14:46:00.889Z,101169.37
2019-06-08T14:50:27.185Z,101173.31
2019-06-08T14:54:51.420Z,101180.62
2019-06-08T14:59:18.349Z,101189.63
2019-06-08T15:03:41.645Z,101209.89
2019-06-08T15:08:08.128Z,101205.00
2019-06-08T15:12:31.531Z,101206.86
2019-06-08T15:16:55.253Z,101218.82
2019-06-08T15:21:21.316Z,101239.59
2019-06-08T15:25:44.442Z,101254.91
2019-06-08T15:30:08.194Z,101263.82
2019-06-08T15:34:33.134Z,101288.84
2019-06-08T15:38:58.526Z,101298.02
2019-06-08T15:43:22.249Z,101291.13
2019-06-08T15:47:48.587Z,101288.97
2019-06-08T15:52:11.830Z,101302.41
2019-06-08T15:56:47.685Z,101292.67
2019-06-08T16:01:02.273Z,101287.70
2019-06-08T16:05:27.620Z,101305.36
2019-06-08T16:09:52.011Z,101304.44
2019-06-08T16:14:15.981Z,101311.02
2019-06-08T16:18:39.686Z,101308.25
2019-06-08T16:23:03.662Z,101285.85
2019-06-08T16:27:27.695Z,101304.17
2019-06-08T16:31:51.530Z,101297.03
2019-06-08T16:36:16.053Z,101314.55
2019-06-08T16:40:40.503Z,101301.87
2019-06-08T16:45:04.311Z,101312.53
2019-06-08T16:49:29.163Z,101312.05
2019-06-08T16:53:53.180Z,101308.41
2019-06-08T16:58:17.884Z,101317.34
2019-06-08T17:02:41.977Z,101333.83
2019-06-08T17:07:05.641Z,101344.09
2019-06-08T17:11:29.663Z,101330.75
2019-06-08T17:15:54.400Z,101351.63
2019-06-08T17:20:18.224Z,101344.70
2019-06-08T17:24:41.913Z,101348.02
2019-06-08T17:29:05.762Z,101347.86
2019-06-08T17:33:29.438Z,101344.41
2019-06-08T17:37:53.127Z,101352.16
2019-06-08T17:46:47.711Z,101349.89
2019-06-08T17:51:11.381Z,101361.67
2019-06-08T17:55:35.157Z,101361.67
2019-06-08T17:59:58.811Z,101364.17
2019-06-08T18:04:22.489Z,101373.93
2019-06-08T18:08:48.051Z,101370.55
2019-06-08T18:13:11.789Z,101378.02
2019-06-08T18:17:38.972Z,101377.05
2019-06-08T18:22:05.285Z,101379.08
2019-06-08T18:26:27.955Z,101377.78
2019-06-08T18:30:51.673Z,101387.50
2019-06-08T18:35:15.506Z,101380.42
2019-06-08T18:39:42.509Z,101379.98
2019-06-08T18:44:08.231Z,101391.67
2019-06-08T18:48:30.826Z,101395.78
2019-06-08T18:52:54.500Z,101394.11
2019-06-08T18:57:18.172Z,101397.84
2019-06-08T19:01:43.246Z,101396.92
2019-06-08T19:06:10.158Z,101407.00
2019-06-08T19:10:33.660Z,101406.98
2019-06-08T19:14:58.571Z,101407.95
2019-06-08T19:19:22.329Z,101420.50
2019-06-08T19:23:49.229Z,101420.86
2019-06-08T19:28:12.578Z,101427.80
2019-06-08T19:32:38.925Z,101434.64
2019-06-08T19:37:01.886Z,101435.92
2019-06-08T19:41:28.085Z,101448.97
2019-06-08T19:45:52.130Z,101454.70
2019-06-08T19:50:17.287Z,101464.77
2019-06-08T19:54:43.641Z,101475.38
2019-06-08T19:59:08.460Z,101480.87
2019-06-08T20:03:31.860Z,101498.13
2019-06-08T20:07:57.547Z,101504.33
2019-06-08T20:12:20.945Z,101505.26
2019-06-08T20:16:48.083Z,101518.53
2019-06-08T20:21:10.965Z,101521.98
2019-06-08T20:25:34.862Z,101535.48
2019-06-08T20:29:58.777Z,101532.27
2019-06-08T20:34:22.441Z,101536.52
2019-06-08T20:38:47.434Z,101547.10
2019-06-08T20:43:11.183Z,101551.58
2019-06-08T20:47:36.750Z,101554.45
2019-06-08T20:52:00.622Z,101561.52
2019-06-08T20:56:24.540Z,101568.33
2019-06-08T21:00:49.758Z,101570.70
2019-06-08T21:05:14.082Z,101573.65
2019-06-08T21:09:38.070Z,101578.06
2019-06-08T21:14:01.805Z,101576.41
2019-06-08T21:18:27.594Z,101583.22
2019-06-08T21:22:53.408Z,101590.46
2019-06-08T21:27:17.396Z,101592.12
2019-06-08T21:31:41.052Z,101598.20
2019-06-08T21:36:08.482Z,101601.52
2019-06-08T21:40:30.233Z,101611.88
2019-06-08T21:44:55.972Z,101598.38
2019-06-08T21:49:19.521Z,101608.36
2019-06-08T21:53:43.279Z,101608.20
2019-06-08T21:58:08.018Z,101601.94
2019-06-08T22:02:31.821Z,101601.05
2019-06-08T22:06:58.599Z,101612.83
2019-06-08T22:11:22.259Z,101617.92
2019-06-08T22:15:47.425Z,101620.50
2019-06-08T22:20:11.369Z,101621.02
2019-06-08T22:24:35.042Z,101629.31
2019-06-08T22:29:01.008Z,101634.98
2019-06-08T22:33:24.091Z,101638.47
2019-06-08T22:37:48.086Z,101637.83
2019-06-08T22:42:12.821Z,101636.56
2019-06-08T22:46:37.517Z,101642.95
2019-06-08T22:51:03.135Z,101639.37
2019-06-08T22:55:27.889Z,101642.03
2019-06-08T22:59:54.297Z,101651.41
2019-06-08T23:04:18.390Z,101654.98
2019-06-08T23:08:42.300Z,101653.11
2019-06-08T23:13:08.291Z,101654.81
2019-06-08T23:17:31.342Z,101659.89
2019-06-08T23:21:55.285Z,101659.82
2019-06-08T23:26:18.965Z,101665.81
2019-06-08T23:30:42.707Z,101658.05
2019-06-08T23:35:07.900Z,101657.97
2019-06-08T23:39:32.039Z,101659.36
2019-06-08T23:43:55.866Z,101660.42
2019-06-08T23:48:19.558Z,101654.14
2019-06-08T23:52:43.243Z,101661.55
2019-06-08T23:57:09.628Z,101653.03
